Time;durP1;ratioP1;P1;durP2;ratioP2;P2;SDS_P1;SDS_P2;PMS_P1;PMS_P2;Temp;Humidity;BMP_temperature;BMP_pressure;BME280_temperature;BME280_humidity;BME280_pressure;Samples;Min_cycle;Max_cycle;Signal;HPM_P1;HPM_P2
2023/12/27 00:02:00;;;;;;;38.93;13.13;;;;;;;;;;5027505;28;20781;-63
2023/12/27 00:04:26;;;;;;;38.93;13.13;;;;;;;;;;5026939;28;20299;-63
2023/12/27 00:06:53;;;;;;;43.23;15.93;;;;;;;;;;5027679;28;20288;-63
2023/12/27 00:09:19;;;;;;;32.63;12.63;;;;;;;;;;5027700;28;20371;-63
2023/12/27 00:11:45;;;;;;;33.07;13.47;;;;;;;;;;5027846;28;20288;-63
2023/12/27 00:14:11;;;;;;;32.93;14.23;;;;;;;;;;5027916;28;20295;-63
2023/12/27 00:16:37;;;;;;;48.10;14.63;;;;;;;;;;5027601;28;20294;-63
2023/12/27 00:19:03;;;;;;;37.43;15.10;;;;;;;;;;5028213;28;20307;-63
2023/12/27 00:21:29;;;;;;;49.63;17.47;;;;;;;;;;5027464;28;20296;-63
2023/12/27 00:23:55;;;;;;;49.40;18.40;;;;;;;;;;5026954;28;20312;-63
2023/12/27 00:26:21;;;;;;;48.30;17.53;;;;;;;;;;5027642;28;20287;-63
2023/12/27 00:28:47;;;;;;;50.47;20.10;;;;;;;;;;5027729;28;20280;-63
2023/12/27 00:31:13;;;;;;;39.77;17.97;;;;;;;;;;5027831;28;20280;-63
2023/12/27 00:33:39;;;;;;;53.30;22.33;;;;;;;;;;5030680;28;20280;-63
2023/12/27 00:36:06;;;;;;;53.40;19.73;;;;;;;;;;5031173;28;20311;-63
2023/12/27 00:38:32;;;;;;;51.30;20.80;;;;;;;;;;5031467;28;20347;-63
2023/12/27 00:40:59;;;;;;;40.50;16.80;;;;;;;;;;5030933;28;20359;-63
2023/12/27 00:43:25;;;;;;;52.77;20.37;;;;;;;;;;5031387;28;20300;-63
2023/12/27 00:45:51;;;;;;;41.07;14.73;;;;;;;;;;5031061;28;20288;-63
2023/12/27 00:48:17;;;;;;;43.00;17.27;;;;;;;;;;5031496;28;20371;-63
2023/12/27 00:50:43;;;;;;;41.50;16.43;;;;;;;;;;5031086;28;20619;-63
2023/12/27 00:53:09;;;;;;;60.90;19.43;;;;;;;;;;5030476;28;20327;-63
2023/12/27 00:55:36;;;;;;;49.07;20.60;;;;;;;;;;5031277;28;20693;-63
2023/12/27 00:58:02;;;;;;;39.40;15.20;;;;;;;;;;5030291;28;20045;-63
2023/12/27 01:00:28;;;;;;;36.97;16.37;;;;;;;;;;5030951;28;20312;-63
2023/12/27 01:02:54;;;;;;;42.47;17.80;;;;;;;;;;5030613;28;20280;-63
2023/12/27 01:05:20;;;;;;;46.20;18.40;;;;;;;;;;5030580;28;20303;-63
2023/12/27 01:07:46;;;;;;;51.10;19.60;;;;;;;;;;5030785;28;20434;-63
2023/12/27 01:10:14;;;;;;;60.83;22.23;;;;;;;;;;5031168;28;20288;-63
2023/12/27 01:12:40;;;;;;;56.30;22.77;;;;;;;;;;5029843;28;20315;-63
2023/12/27 01:15:06;;;;;;;59.17;23.27;;;;;;;;;;5029215;28;20581;-63
2023/12/27 01:17:32;;;;;;;61.47;22.13;;;;;;;;;;5030600;28;20308;-63
2023/12/27 01:19:58;;;;;;;65.57;25.87;;;;;;;;;;5029145;28;20306;-63
2023/12/27 01:22:25;;;;;;;40.43;16.77;;;;;;;;;;5030498;28;20303;-64
2023/12/27 01:24:51;;;;;;;42.43;19.33;;;;;;;;;;5030396;28;20088;-63
2023/12/27 01:27:17;;;;;;;45.77;18.63;;;;;;;;;;5030914;28;20284;-63
2023/12/27 01:29:43;;;;;;;42.67;17.13;;;;;;;;;;5030439;28;20623;-63
2023/12/27 01:32:09;;;;;;;54.83;18.37;;;;;;;;;;5029538;28;20459;-63
2023/12/27 01:34:38;;;;;;;45.70;16.93;;;;;;;;;;5029828;28;20296;-63
2023/12/27 01:37:04;;;;;;;34.73;14.23;;;;;;;;;;5030193;28;20296;-63
2023/12/27 01:39:30;;;;;;;46.20;15.27;;;;;;;;;;5028943;28;20308;-63
2023/12/27 01:41:56;;;;;;;38.53;15.63;;;;;;;;;;5030156;28;20284;-64
2023/12/27 01:44:22;;;;;;;37.40;14.50;;;;;;;;;;5029574;28;20284;-63
2023/12/27 01:46:48;;;;;;;37.70;15.40;;;;;;;;;;5029706;28;20276;-63
2023/12/27 01:49:14;;;;;;;48.17;15.87;;;;;;;;;;5028068;28;20353;-63
2023/12/27 01:51:40;;;;;;;41.40;18.60;;;;;;;;;;5029943;28;20876;-63
2023/12/27 01:54:06;;;;;;;38.67;15.50;;;;;;;;;;5030252;28;20355;-63
2023/12/27 01:56:32;;;;;;;37.27;14.43;;;;;;;;;;5028901;28;20662;-63
2023/12/27 01:58:59;;;;;;;63.10;16.57;;;;;;;;;;5029701;28;20362;-63
2023/12/27 02:01:26;;;;;;;49.77;15.33;;;;;;;;;;5029551;28;20284;-63
2023/12/27 02:03:52;;;;;;;39.13;14.90;;;;;;;;;;5029609;28;20338;-63
2023/12/27 02:06:18;;;;;;;32.13;13.67;;;;;;;;;;5030201;28;20288;-63
2023/12/27 02:08:44;;;;;;;31.27;13.93;;;;;;;;;;5029867;28;20367;-63
2023/12/27 02:11:10;;;;;;;34.80;14.00;;;;;;;;;;5029184;28;20848;-64
2023/12/27 02:13:36;;;;;;;32.50;15.23;;;;;;;;;;5029652;28;20284;-63
2023/12/27 02:16:02;;;;;;;43.50;15.97;;;;;;;;;;5029612;28;20283;-64
2023/12/27 02:18:29;;;;;;;41.57;18.13;;;;;;;;;;5029028;28;20798;-63
2023/12/27 02:20:55;;;;;;;45.33;16.80;;;;;;;;;;5029555;28;20280;-63
2023/12/27 02:23:21;;;;;;;44.50;18.13;;;;;;;;;;5028525;28;20300;-63
2023/12/27 02:25:49;;;;;;;37.37;16.20;;;;;;;;;;5029512;28;20646;-63
2023/12/27 02:28:15;;;;;;;37.77;16.33;;;;;;;;;;5027997;28;20308;-63
2023/12/27 02:30:41;;;;;;;50.07;19.67;;;;;;;;;;5029291;28;20361;-64
2023/12/27 02:33:07;;;;;;;42.27;15.73;;;;;;;;;;5027661;28;20307;-64
2023/12/27 02:35:33;;;;;;;44.67;15.73;;;;;;;;;;5029206;28;20284;-64
2023/12/27 02:37:59;;;;;;;46.40;15.87;;;;;;;;;;5028650;28;20316;-64
2023/12/27 02:40:25;;;;;;;34.10;14.93;;;;;;;;;;5029176;28;20714;-64
2023/12/27 02:42:51;;;;;;;38.47;16.73;;;;;;;;;;5028160;28;20805;-63
2023/12/27 02:45:17;;;;;;;37.03;15.93;;;;;;;;;;5029213;28;20387;-64
2023/12/27 02:47:43;;;;;;;31.53;15.23;;;;;;;;;;5028774;28;20794;-64
2023/12/27 02:50:09;;;;;;;35.87;17.70;;;;;;;;;;5028965;28;20709;-63
2023/12/27 02:52:35;;;;;;;42.23;16.60;;;;;;;;;;5028683;28;20284;-64
2023/12/27 02:55:01;;;;;;;40.93;15.17;;;;;;;;;;5027070;28;20383;-64
2023/12/27 02:57:27;;;;;;;39.27;17.33;;;;;;;;;;5028803;28;20836;-64
2023/12/27 02:59:54;;;;;;;35.00;18.00;;;;;;;;;;5028601;28;20328;-64
2023/12/27 03:02:20;;;;;;;43.93;19.30;;;;;;;;;;5027405;28;20311;-64
2023/12/27 03:04:46;;;;;;;36.90;17.27;;;;;;;;;;5028646;28;20292;-64
2023/12/27 03:07:12;;;;;;;34.50;17.17;;;;;;;;;;5028814;28;20330;-64
2023/12/27 03:09:38;;;;;;;37.27;19.50;;;;;;;;;;5028622;28;20279;-64
2023/12/27 03:12:04;;;;;;;40.13;18.33;;;;;;;;;;5027499;28;20715;-63
2023/12/27 03:14:30;;;;;;;40.77;17.77;;;;;;;;;;5028425;28;20297;-64
2023/12/27 03:16:56;;;;;;;53.93;21.10;;;;;;;;;;5028127;28;20288;-64
2023/12/27 03:19:22;;;;;;;36.40;16.87;;;;;;;;;;5026739;28;20797;-64
2023/12/27 03:21:48;;;;;;;42.23;18.37;;;;;;;;;;5028692;28;20371;-64
2023/12/27 03:24:15;;;;;;;35.73;17.40;;;;;;;;;;5027893;28;20729;-64
2023/12/27 03:26:41;;;;;;;35.33;15.73;;;;;;;;;;5028317;28;20338;-64
2023/12/27 03:29:07;;;;;;;41.47;17.43;;;;;;;;;;5028590;28;20800;-64
2023/12/27 03:31:33;;;;;;;33.30;15.40;;;;;;;;;;5028569;28;20276;-64
2023/12/27 03:33:59;;;;;;;31.10;14.13;;;;;;;;;;5027738;28;20729;-64
2023/12/27 03:36:25;;;;;;;39.63;16.23;;;;;;;;;;5027205;28;20284;-64
2023/12/27 03:38:51;;;;;;;33.20;14.77;;;;;;;;;;5028189;28;20404;-64
2023/12/27 03:41:17;;;;;;;41.10;18.47;;;;;;;;;;5028164;28;20809;-63
2023/12/27 03:43:43;;;;;;;40.13;16.03;;;;;;;;;;5026804;28;20284;-64
2023/12/27 03:46:11;;;;;;;40.40;17.13;;;;;;;;;;5027121;28;20309;-63
2023/12/27 03:48:37;;;;;;;30.27;13.97;;;;;;;;;;5028277;28;20774;-64
2023/12/27 03:51:03;;;;;;;29.97;15.53;;;;;;;;;;5027873;28;20299;-64
2023/12/27 03:53:29;;;;;;;41.60;17.67;;;;;;;;;;5028094;28;20288;-63
2023/12/27 03:55:55;;;;;;;39.43;20.97;;;;;;;;;;5028159;28;20742;-63
2023/12/27 03:58:21;;;;;;;41.20;17.57;;;;;;;;;;5027562;28;20308;-64
2023/12/27 04:00:47;;;;;;;39.97;16.60;;;;;;;;;;5028380;28;20318;-63
2023/12/27 04:03:14;;;;;;;44.07;19.40;;;;;;;;;;5028202;28;20284;-63
2023/12/27 04:05:40;;;;;;;44.30;20.53;;;;;;;;;;5028205;28;20292;-64
2023/12/27 04:08:06;;;;;;;49.43;21.43;;;;;;;;;;5029584;28;20343;-64
2023/12/27 04:10:32;;;;;;;42.87;19.87;;;;;;;;;;5031762;28;20758;-63
2023/12/27 04:12:59;;;;;;;53.23;21.90;;;;;;;;;;5032081;28;20283;-63
2023/12/27 04:15:25;;;;;;;58.03;24.37;;;;;;;;;;5032119;28;20365;-63
2023/12/27 04:17:51;;;;;;;39.23;21.17;;;;;;;;;;5030865;28;20311;-64
2023/12/27 04:20:17;;;;;;;49.40;20.73;;;;;;;;;;5031802;28;20849;-63
2023/12/27 04:22:43;;;;;;;58.60;24.30;;;;;;;;;;5011789;28;20370;-63
2023/12/27 04:25:09;;;;;;;41.97;19.73;;;;;;;;;;5011990;28;20292;-63
2023/12/27 04:27:35;;;;;;;37.67;18.00;;;;;;;;;;5012086;28;20281;-63
2023/12/27 04:30:01;;;;;;;47.10;21.63;;;;;;;;;;5010658;28;20650;-63
2023/12/27 04:32:27;;;;;;;50.13;23.03;;;;;;;;;;5011307;28;20651;-63
2023/12/27 04:34:53;;;;;;;57.90;25.00;;;;;;;;;;5013047;28;20285;-64
2023/12/27 04:37:19;;;;;;;61.07;25.23;;;;;;;;;;5031500;28;20304;-63
2023/12/27 04:39:45;;;;;;;48.73;22.90;;;;;;;;;;5031311;28;20737;-64
2023/12/27 04:42:11;;;;;;;48.97;24.57;;;;;;;;;;5030920;28;20284;-64
2023/12/27 04:44:37;;;;;;;74.33;31.57;;;;;;;;;;5031403;28;20715;-64
2023/12/27 04:47:04;;;;;;;69.23;27.87;;;;;;;;;;5031620;28;20685;-64
2023/12/27 04:49:30;;;;;;;72.90;31.53;;;;;;;;;;5030577;28;20354;-64
2023/12/27 04:51:56;;;;;;;77.63;33.57;;;;;;;;;;5030606;28;20802;-64
2023/12/27 04:54:22;;;;;;;65.37;29.90;;;;;;;;;;5030543;28;20311;-64
2023/12/27 04:56:48;;;;;;;73.33;34.33;;;;;;;;;;5031286;28;20276;-63
2023/12/27 04:59:14;;;;;;;81.13;35.83;;;;;;;;;;5030602;28;20805;-64
2023/12/27 05:01:40;;;;;;;65.83;30.87;;;;;;;;;;5031045;28;20326;-64
2023/12/27 05:04:07;;;;;;;69.93;33.00;;;;;;;;;;5030685;28;20288;-64
2023/12/27 05:06:33;;;;;;;71.03;33.37;;;;;;;;;;5031141;28;20284;-64
2023/12/27 05:09:03;;;;;;;63.13;31.80;;;;;;;;;;5030297;28;20586;-64
2023/12/27 05:11:29;;;;;;;64.70;32.27;;;;;;;;;;5030876;28;20320;-64
2023/12/27 05:13:55;;;;;;;100.60;40.93;;;;;;;;;;5030727;28;20288;-64
2023/12/27 05:16:22;;;;;;;70.57;32.87;;;;;;;;;;5030848;28;20781;-64
2023/12/27 05:18:48;;;;;;;90.37;41.97;;;;;;;;;;5029869;28;20316;-64
2023/12/27 05:21:15;;;;;;;80.97;36.87;;;;;;;;;;5030250;28;20291;-64
2023/12/27 05:23:41;;;;;;;85.40;38.80;;;;;;;;;;5030452;28;20449;-64
2023/12/27 05:26:07;;;;;;;73.83;37.43;;;;;;;;;;5030563;28;20338;-64
2023/12/27 05:28:33;;;;;;;76.43;33.87;;;;;;;;;;5030673;28;20284;-64
2023/12/27 05:30:59;;;;;;;79.53;37.40;;;;;;;;;;5030581;28;20111;-64
2023/12/27 05:33:25;;;;;;;97.50;40.83;;;;;;;;;;5030331;28;20107;-64
2023/12/27 05:35:51;;;;;;;84.57;37.63;;;;;;;;;;5030418;28;20053;-64
2023/12/27 05:38:18;;;;;;;66.47;34.27;;;;;;;;;;5030240;28;20053;-64
2023/12/27 05:40:44;;;;;;;74.23;37.03;;;;;;;;;;5030443;28;20077;-64
2023/12/27 05:43:10;;;;;;;80.23;38.03;;;;;;;;;;5030082;28;20350;-64
2023/12/27 05:45:36;;;;;;;97.17;41.70;;;;;;;;;;5030320;28;20428;-64
2023/12/27 05:48:03;;;;;;;71.37;33.67;;;;;;;;;;5029759;28;20488;-64
2023/12/27 05:50:29;;;;;;;65.00;32.70;;;;;;;;;;5029882;28;20296;-64
2023/12/27 05:52:55;;;;;;;82.90;36.50;;;;;;;;;;5030098;28;20825;-64
2023/12/27 05:55:21;;;;;;;63.63;31.13;;;;;;;;;;5029153;28;20504;-64
2023/12/27 05:57:47;;;;;;;78.93;35.73;;;;;;;;;;5029298;28;20315;-64
2023/12/27 06:00:17;;;;;;;74.77;34.77;;;;;;;;;;5028962;28;20045;-64
2023/12/27 06:02:43;;;;;;;75.40;32.37;;;;;;;;;;5030177;28;20037;-64
2023/12/27 06:05:12;;;;;;;50.47;28.13;;;;;;;;;;5029795;28;20052;-64
2023/12/27 06:07:38;;;;;;;69.23;30.53;;;;;;;;;;5029407;28;20084;-65
2023/12/27 06:10:05;;;;;;;58.50;27.37;;;;;;;;;;5028829;28;20053;-64
2023/12/27 06:12:31;;;;;;;65.97;30.10;;;;;;;;;;5009938;28;20120;-65
2023/12/27 06:14:57;;;;;;;60.57;27.10;;;;;;;;;;5009863;28;20049;-65
2023/12/27 06:17:23;;;;;;;76.47;32.43;;;;;;;;;;5008832;28;20053;-65
2023/12/27 06:19:49;;;;;;;55.97;29.40;;;;;;;;;;5009179;28;20052;-65
2023/12/27 06:22:16;;;;;;;71.53;32.07;;;;;;;;;;5020094;28;20042;-65
2023/12/27 06:24:42;;;;;;;62.07;28.80;;;;;;;;;;5029262;28;20400;-65
2023/12/27 06:27:10;;;;;;;67.47;29.43;;;;;;;;;;5029376;28;20437;-65
2023/12/27 06:29:36;;;;;;;44.97;23.03;;;;;;;;;;5027032;28;20103;-65
2023/12/27 06:32:03;;;;;;;52.83;27.27;;;;;;;;;;5029182;28;20065;-65
2023/12/27 06:34:29;;;;;;;65.20;29.77;;;;;;;;;;5027322;28;20059;-65
2023/12/27 06:36:55;;;;;;;57.90;25.67;;;;;;;;;;5028765;28;20041;-65
2023/12/27 06:39:21;;;;;;;59.70;25.73;;;;;;;;;;5029146;28;20503;-65
2023/12/27 06:41:47;;;;;;;52.43;24.30;;;;;;;;;;5027921;28;20056;-65
2023/12/27 06:44:13;;;;;;;67.00;28.33;;;;;;;;;;5034281;28;20554;-64
2023/12/27 06:46:39;;;;;;;59.60;24.97;;;;;;;;;;5028848;28;20102;-65
2023/12/27 06:49:05;;;;;;;69.67;26.90;;;;;;;;;;5029200;28;20288;-65
2023/12/27 06:51:31;;;;;;;52.10;24.37;;;;;;;;;;5028704;28;20052;-64
2023/12/27 06:53:57;;;;;;;55.63;20.73;;;;;;;;;;5028184;28;20445;-64
2023/12/27 06:56:23;;;;;;;59.93;24.70;;;;;;;;;;5029167;28;20083;-64
2023/12/27 06:58:49;;;;;;;60.73;23.50;;;;;;;;;;5028460;28;20511;-65
2023/12/27 07:01:15;;;;;;;51.33;22.33;;;;;;;;;;5027148;28;20467;-64
2023/12/27 07:03:41;;;;;;;40.87;18.30;;;;;;;;;;5028609;28;20106;-64
2023/12/27 07:06:07;;;;;;;34.20;17.40;;;;;;;;;;5028939;28;20132;-65
2023/12/27 07:08:33;;;;;;;49.83;17.30;;;;;;;;;;5028550;28;20088;-64
2023/12/27 07:10:59;;;;;;;53.63;21.00;;;;;;;;;;5028363;28;20135;-64
2023/12/27 07:13:25;;;;;;;53.03;17.83;;;;;;;;;;5029104;28;20563;-64
2023/12/27 07:15:51;;;;;;;34.13;15.63;;;;;;;;;;5028597;28;20037;-64
2023/12/27 07:18:17;;;;;;;38.77;15.50;;;;;;;;;;5028870;28;20057;-64
2023/12/27 07:20:43;;;;;;;41.93;14.73;;;;;;;;;;5028317;28;20072;-64
2023/12/27 07:23:10;;;;;;;31.73;13.00;;;;;;;;;;5028317;28;20538;-65
2023/12/27 07:25:36;;;;;;;31.73;12.17;;;;;;;;;;5028267;28;20512;-64
2023/12/27 07:28:02;;;;;;;29.57;13.00;;;;;;;;;;5027015;28;20052;-64
2023/12/27 07:30:28;;;;;;;36.97;14.07;;;;;;;;;;5028094;28;20042;-64
2023/12/27 07:32:54;;;;;;;29.20;12.77;;;;;;;;;;5028438;28;20049;-64
2023/12/27 07:35:20;;;;;;;38.97;14.87;;;;;;;;;;5026484;28;20128;-64
2023/12/27 07:37:46;;;;;;;33.70;14.33;;;;;;;;;;5026513;28;20046;-64
2023/12/27 07:40:14;;;;;;;35.60;14.47;;;;;;;;;;5028932;28;20048;-64
2023/12/27 07:42:40;;;;;;;32.77;14.37;;;;;;;;;;5027571;28;20522;-64
2023/12/27 07:45:07;;;;;;;35.87;14.73;;;;;;;;;;5021407;28;20049;-64
2023/12/27 07:47:33;;;;;;;31.67;14.57;;;;;;;;;;5028370;28;20049;-64
2023/12/27 07:49:59;;;;;;;31.20;13.83;;;;;;;;;;5025715;28;20042;-64
2023/12/27 07:52:25;;;;;;;38.30;15.73;;;;;;;;;;5027780;28;20041;-64
2023/12/27 07:54:52;;;;;;;32.43;15.43;;;;;;;;;;5028227;28;20099;-64
2023/12/27 07:57:18;;;;;;;32.93;16.00;;;;;;;;;;5027667;28;20053;-64
2023/12/27 07:59:44;;;;;;;42.63;17.90;;;;;;;;;;5028284;28;20045;-64
2023/12/27 08:02:10;;;;;;;37.27;16.83;;;;;;;;;;5028252;28;20500;-64
2023/12/27 08:04:36;;;;;;;39.60;16.97;;;;;;;;;;5028453;28;20041;-64
2023/12/27 08:07:02;;;;;;;32.93;15.40;;;;;;;;;;5027717;28;20104;-64
2023/12/27 08:09:29;;;;;;;38.50;16.83;;;;;;;;;;5025354;28;20099;-64
2023/12/27 08:11:55;;;;;;;32.13;14.47;;;;;;;;;;5027525;28;20519;-64
2023/12/27 08:14:21;;;;;;;42.07;18.23;;;;;;;;;;5028399;28;20049;-64
2023/12/27 08:16:51;;;;;;;35.60;18.17;;;;;;;;;;5036547;28;20041;-64
2023/12/27 08:19:17;;;;;;;41.47;17.93;;;;;;;;;;5048606;28;20049;-64
2023/12/27 08:21:43;;;;;;;46.30;18.47;;;;;;;;;;5033447;28;20038;-64
2023/12/27 08:24:09;;;;;;;33.23;16.00;;;;;;;;;;5028226;28;20049;-64
2023/12/27 08:26:35;;;;;;;40.13;19.23;;;;;;;;;;5029006;28;20049;-64
2023/12/27 08:29:01;;;;;;;50.80;21.13;;;;;;;;;;5028646;28;20049;-64
2023/12/27 08:31:27;;;;;;;46.20;20.40;;;;;;;;;;5028078;28;20537;-64
2023/12/27 08:33:53;;;;;;;38.77;19.50;;;;;;;;;;5027016;28;20049;-64
2023/12/27 08:36:19;;;;;;;56.97;23.13;;;;;;;;;;5027911;28;20037;-64
2023/12/27 08:38:45;;;;;;;50.77;21.63;;;;;;;;;;5026875;28;20048;-64
2023/12/27 08:41:11;;;;;;;49.30;22.40;;;;;;;;;;5034743;28;20536;-64
2023/12/27 08:43:38;;;;;;;48.00;20.60;;;;;;;;;;5035119;28;20041;-64
2023/12/27 08:46:09;;;;;;;48.90;22.40;;;;;;;;;;5036264;28;20045;-64
2023/12/27 08:48:35;;;;;;;58.17;23.20;;;;;;;;;;5033410;28;20045;-64
2023/12/27 08:51:01;;;;;;;49.00;22.43;;;;;;;;;;5032519;28;20034;-64
2023/12/27 08:53:27;;;;;;;42.13;18.63;;;;;;;;;;5039761;28;20067;-64
2023/12/27 08:55:53;;;;;;;39.73;17.73;;;;;;;;;;5036466;28;20065;-64
2023/12/27 08:58:19;;;;;;;48.47;19.77;;;;;;;;;;5038749;28;20698;-64
2023/12/27 09:00:45;;;;;;;48.23;19.77;;;;;;;;;;5040790;28;20132;-64
2023/12/27 09:03:11;;;;;;;48.13;18.90;;;;;;;;;;5036453;28;20052;-64
2023/12/27 09:05:37;;;;;;;44.97;18.83;;;;;;;;;;5040746;28;20029;-64
2023/12/27 09:08:03;;;;;;;39.40;18.80;;;;;;;;;;5038547;28;20061;-64
2023/12/27 09:10:29;;;;;;;45.33;20.17;;;;;;;;;;5038964;28;20135;-64
2023/12/27 09:12:55;;;;;;;48.47;20.07;;;;;;;;;;5039386;28;20180;-64
2023/12/27 09:15:21;;;;;;;36.30;18.43;;;;;;;;;;5039407;28;20119;-64
2023/12/27 09:17:47;;;;;;;42.73;17.60;;;;;;;;;;5035678;28;20049;-64
2023/12/27 09:20:13;;;;;;;42.10;19.03;;;;;;;;;;5042270;28;20052;-64
2023/12/27 09:22:39;;;;;;;47.73;21.07;;;;;;;;;;5040197;28;20040;-64
2023/12/27 09:25:05;;;;;;;46.53;19.90;;;;;;;;;;5039582;28;20033;-64
2023/12/27 09:27:31;;;;;;;39.43;18.70;;;;;;;;;;5036922;28;20483;-64
2023/12/27 09:29:57;;;;;;;34.60;18.50;;;;;;;;;;5040012;28;20547;-64
2023/12/27 09:32:23;;;;;;;42.87;19.57;;;;;;;;;;5034461;28;20527;-64
2023/12/27 09:34:49;;;;;;;45.63;20.17;;;;;;;;;;5035448;28;20439;-64
2023/12/27 09:37:15;;;;;;;43.67;17.27;;;;;;;;;;5034962;28;20046;-64
2023/12/27 09:39:41;;;;;;;41.03;18.93;;;;;;;;;;5038740;28;20280;-64
2023/12/27 09:42:08;;;;;;;40.30;18.57;;;;;;;;;;5031907;28;20045;-64
2023/12/27 09:44:37;;;;;;;44.10;18.37;;;;;;;;;;5038141;28;20049;-63
2023/12/27 09:47:04;;;;;;;43.17;19.93;;;;;;;;;;5035843;28;20423;-64
2023/12/27 09:49:32;;;;;;;50.47;19.97;;;;;;;;;;5039006;28;20090;-65
2023/12/27 09:51:59;;;;;;;45.17;20.63;;;;;;;;;;5035561;28;20056;-65
2023/12/27 09:54:25;;;;;;;43.10;20.47;;;;;;;;;;5040591;28;20087;-64
2023/12/27 09:56:51;;;;;;;40.87;22.47;;;;;;;;;;5040973;28;20118;-65
2023/12/27 09:59:26;;;;;;;42.23;20.27;;;;;;;;;;5037641;28;20077;-65
2023/12/27 10:01:53;;;;;;;53.17;23.07;;;;;;;;;;5034197;28;20049;-65
2023/12/27 10:04:26;;;;;;;57.90;24.83;;;;;;;;;;5040436;28;20056;-65
2023/12/27 10:06:53;;;;;;;47.97;22.73;;;;;;;;;;5037304;28;20041;-65
2023/12/27 10:09:19;;;;;;;61.37;25.77;;;;;;;;;;5038251;28;20057;-65
2023/12/27 10:11:46;;;;;;;53.10;24.07;;;;;;;;;;5036428;28;20608;-65
2023/12/27 10:14:13;;;;;;;52.00;24.07;;;;;;;;;;5039042;28;20136;-65
2023/12/27 10:16:39;;;;;;;50.57;25.33;;;;;;;;;;5037684;28;20045;-65
2023/12/27 10:19:05;;;;;;;59.23;25.77;;;;;;;;;;5036973;28;20056;-65
2023/12/27 10:21:44;;;;;;;54.90;24.27;;;;;;;;;;5038752;28;20044;-65
2023/12/27 10:24:10;;;;;;;60.37;26.17;;;;;;;;;;5035115;28;20050;-65
2023/12/27 10:26:36;;;;;;;62.40;26.10;;;;;;;;;;5040871;28;20037;-65
2023/12/27 10:29:03;;;;;;;74.27;26.43;;;;;;;;;;5037778;28;20034;-65
2023/12/27 10:31:29;;;;;;;62.27;25.73;;;;;;;;;;5037088;28;20132;-65
2023/12/27 10:33:58;;;;;;;69.27;27.87;;;;;;;;;;5042364;28;20116;-65
2023/12/27 10:36:25;;;;;;;77.90;29.43;;;;;;;;;;5035226;28;20503;-66
2023/12/27 10:38:51;;;;;;;76.13;28.17;;;;;;;;;;5038381;28;20052;-65
2023/12/27 10:41:17;;;;;;;57.27;25.97;;;;;;;;;;5033141;28;20053;-65
2023/12/27 10:43:46;;;;;;;57.43;24.97;;;;;;;;;;5034444;28;20180;-65
2023/12/27 10:46:12;;;;;;;79.40;30.43;;;;;;;;;;5034278;28;20057;-65
2023/12/27 10:48:39;;;;;;;76.87;31.43;;;;;;;;;;5034949;28;20081;-65
2023/12/27 10:51:07;;;;;;;66.27;27.43;;;;;;;;;;5039510;28;20080;-65
2023/12/27 10:53:37;;;;;;;60.80;25.87;;;;;;;;;;5037126;28;20037;-65
2023/12/27 10:56:04;;;;;;;67.07;27.90;;;;;;;;;;5037246;28;20034;-65
2023/12/27 10:58:33;;;;;;;66.67;27.37;;;;;;;;;;5038181;28;20045;-65
2023/12/27 11:01:00;;;;;;;56.73;26.37;;;;;;;;;;5030913;28;20140;-65
2023/12/27 11:03:29;;;;;;;85.10;31.63;;;;;;;;;;5035920;28;20044;-65
2023/12/27 11:05:55;;;;;;;83.47;31.20;;;;;;;;;;5031627;28;20104;-65
2023/12/27 11:08:21;;;;;;;82.63;31.73;;;;;;;;;;5030528;28;20112;-66
2023/12/27 11:10:49;;;;;;;104.93;37.13;;;;;;;;;;5031583;28;20559;-66
2023/12/27 11:13:19;;;;;;;81.57;30.83;;;;;;;;;;5036355;28;20587;-65
2023/12/27 11:15:45;;;;;;;77.80;29.10;;;;;;;;;;5040733;28;20103;-66
2023/12/27 11:18:12;;;;;;;82.40;32.73;;;;;;;;;;5032061;28;20049;-65
2023/12/27 11:20:41;;;;;;;72.53;29.27;;;;;;;;;;5035701;28;20037;-65
2023/12/27 11:23:08;;;;;;;86.07;32.97;;;;;;;;;;5036502;28;20056;-66
2023/12/27 11:25:34;;;;;;;62.77;29.07;;;;;;;;;;5037441;28;20088;-65
2023/12/27 11:28:00;;;;;;;68.33;27.20;;;;;;;;;;5036433;28;20045;-65
2023/12/27 11:30:27;;;;;;;87.53;31.33;;;;;;;;;;5037248;28;20045;-66
2023/12/27 11:32:53;;;;;;;57.63;25.20;;;;;;;;;;5035662;28;20053;-65
2023/12/27 11:35:29;;;;;;;61.00;27.20;;;;;;;;;;5036714;28;20076;-65
2023/12/27 11:38:14;;;;;;;58.83;26.07;;;;;;;;;;5039778;28;20045;-65
2023/12/27 11:40:41;;;;;;;70.10;27.23;;;;;;;;;;5030291;28;20073;-66
2023/12/27 11:43:08;;;;;;;55.37;25.63;;;;;;;;;;5034987;28;20045;-65
2023/12/27 11:45:52;;;;;;;71.13;28.47;;;;;;;;;;5041641;28;20544;-65
2023/12/27 11:48:18;;;;;;;77.47;30.07;;;;;;;;;;5038136;28;20546;-65
2023/12/27 11:50:44;;;;;;;60.83;26.57;;;;;;;;;;5040426;28;20045;-65
2023/12/27 11:53:10;;;;;;;49.67;25.30;;;;;;;;;;5031918;28;20531;-65
2023/12/27 11:55:36;;;;;;;60.57;26.40;;;;;;;;;;5039968;28;20127;-66
2023/12/27 11:58:02;;;;;;;67.53;28.93;;;;;;;;;;5037352;28;20085;-65
2023/12/27 12:00:28;;;;;;;62.83;27.37;;;;;;;;;;5035730;28;20049;-65
2023/12/27 12:02:59;;;;;;;67.23;29.00;;;;;;;;;;5031402;28;20467;-65
2023/12/27 12:05:35;;;;;;;68.33;29.57;;;;;;;;;;5030376;28;20103;-65
2023/12/27 12:08:05;;;;;;;70.03;30.90;;;;;;;;;;5035014;28;20041;-65
2023/12/27 12:10:33;;;;;;;62.53;28.07;;;;;;;;;;5038769;28;20175;-65
2023/12/27 12:13:00;;;;;;;62.37;28.63;;;;;;;;;;5037784;28;20459;-65
2023/12/27 12:15:29;;;;;;;56.43;27.67;;;;;;;;;;5024861;28;20054;-65
2023/12/27 12:17:56;;;;;;;77.07;31.33;;;;;;;;;;5029204;28;20236;-65
2023/12/27 12:20:22;;;;;;;65.63;30.67;;;;;;;;;;5025715;28;20530;-65
2023/12/27 12:22:49;;;;;;;67.13;29.63;;;;;;;;;;5025702;28;20037;-65
2023/12/27 12:25:15;;;;;;;71.77;30.63;;;;;;;;;;5017592;28;20100;-65
2023/12/27 12:27:42;;;;;;;73.77;33.10;;;;;;;;;;5016228;28;20052;-65
2023/12/27 12:30:08;;;;;;;74.17;33.80;;;;;;;;;;5032092;28;20396;-66
2023/12/27 12:32:40;;;;;;;63.40;30.37;;;;;;;;;;5032507;28;20045;-65
2023/12/27 12:35:08;;;;;;;77.33;34.87;;;;;;;;;;5031811;28;20124;-65
2023/12/27 12:37:34;;;;;;;72.57;32.57;;;;;;;;;;5031725;28;20103;-65
2023/12/27 12:40:00;;;;;;;73.07;34.60;;;;;;;;;;5031622;28;20089;-65
2023/12/27 12:42:27;;;;;;;65.87;34.33;;;;;;;;;;5030324;28;20048;-65
2023/12/27 12:44:54;;;;;;;72.07;33.77;;;;;;;;;;5031765;28;20058;-65
2023/12/27 12:47:20;;;;;;;85.50;37.33;;;;;;;;;;5031624;28;20057;-65
2023/12/27 12:49:46;;;;;;;79.23;36.53;;;;;;;;;;5031995;28;20049;-65
2023/12/27 12:52:12;;;;;;;72.70;35.67;;;;;;;;;;5031476;28;20042;-65
2023/12/27 12:54:38;;;;;;;78.63;36.63;;;;;;;;;;5031683;28;20053;-65
2023/12/27 12:57:04;;;;;;;70.63;33.97;;;;;;;;;;5031383;28;20122;-65
2023/12/27 12:59:30;;;;;;;81.03;36.50;;;;;;;;;;5031144;28;20041;-65
2023/12/27 13:01:56;;;;;;;78.80;35.53;;;;;;;;;;5031584;28;20045;-65
2023/12/27 13:04:25;;;;;;;75.07;34.27;;;;;;;;;;5030125;28;20056;-65
2023/12/27 13:07:05;;;;;;;74.00;33.93;;;;;;;;;;5030193;28;20034;-65
2023/12/27 13:09:31;;;;;;;70.73;33.03;;;;;;;;;;5030679;28;20573;-65
2023/12/27 13:11:58;;;;;;;74.83;34.77;;;;;;;;;;5031321;28;20049;-65
2023/12/27 13:14:24;;;;;;;63.70;32.60;;;;;;;;;;5030449;28;20045;-65
2023/12/27 13:16:50;;;;;;;66.53;34.20;;;;;;;;;;5030906;28;20068;-65
2023/12/27 13:19:17;;;;;;;64.20;32.20;;;;;;;;;;5030773;28;20049;-65
2023/12/27 13:21:43;;;;;;;62.07;31.63;;;;;;;;;;5029588;28;20049;-65
2023/12/27 13:24:09;;;;;;;56.17;31.47;;;;;;;;;;5030421;28;20879;-65
2023/12/27 13:26:35;;;;;;;69.67;33.07;;;;;;;;;;5031352;28;20440;-65
2023/12/27 13:29:01;;;;;;;68.43;32.50;;;;;;;;;;5030638;28;20164;-65
2023/12/27 13:31:28;;;;;;;59.97;31.13;;;;;;;;;;5031316;28;20080;-65
2023/12/27 13:33:54;;;;;;;63.23;30.83;;;;;;;;;;5030545;28;20049;-65
2023/12/27 13:36:20;;;;;;;55.17;29.80;;;;;;;;;;5030697;28;20111;-65
2023/12/27 13:38:46;;;;;;;59.07;29.57;;;;;;;;;;5030349;28;20052;-65
2023/12/27 13:41:12;;;;;;;62.03;29.83;;;;;;;;;;5030725;28;20400;-65
2023/12/27 13:43:41;;;;;;;49.00;25.97;;;;;;;;;;5030468;28;20202;-65
2023/12/27 13:46:07;;;;;;;48.03;25.20;;;;;;;;;;5030391;28;20049;-65
2023/12/27 13:48:34;;;;;;;47.27;26.07;;;;;;;;;;5030302;28;20191;-65
2023/12/27 13:51:00;;;;;;;50.87;26.53;;;;;;;;;;5029579;28;20081;-65
2023/12/27 13:53:26;;;;;;;47.50;23.37;;;;;;;;;;5030600;28;20136;-65
2023/12/27 13:55:52;;;;;;;38.40;22.90;;;;;;;;;;5029959;28;20132;-65
2023/12/27 13:58:18;;;;;;;32.27;22.10;;;;;;;;;;5030190;28;20042;-65
2023/12/27 14:00:44;;;;;;;41.53;22.17;;;;;;;;;;5030280;28;20053;-65
2023/12/27 14:03:11;;;;;;;35.90;19.57;;;;;;;;;;5030433;28;20041;-65
2023/12/27 14:05:38;;;;;;;26.90;17.00;;;;;;;;;;5029962;28;20053;-65
2023/12/27 14:08:05;;;;;;;35.97;19.83;;;;;;;;;;5030182;28;20136;-65
2023/12/27 14:10:31;;;;;;;33.80;18.77;;;;;;;;;;5029429;28;20045;-65
2023/12/27 14:12:57;;;;;;;33.27;16.83;;;;;;;;;;5030286;28;20466;-65